Time;durP1;ratioP1;P1;durP2;ratioP2;P2;SDS_P1;SDS_P2;PMS_P1;PMS_P2;Temp;Humidity;BMP_temperature;BMP_pressure;BME280_temperature;BME280_humidity;BME280_pressure;Samples;Min_cycle;Max_cycle;Signal;HPM_P1;HPM_P2
2022/01/06 00:01:39;;;;;;;29.67;4.68;;;2.40;99.90;;;;;;4944578;28;20142;-47
2022/01/06 00:04:05;;;;;;;22.92;4.25;;;2.40;99.90;;;;;;4924835;29;20388;-47
2022/01/06 00:06:36;;;;;;;27.30;5.45;;;2.50;99.90;;;;;;4942962;28;20090;-47
2022/01/06 00:09:05;;;;;;;29.08;4.88;;;2.50;99.90;;;;;;4916122;29;20326;-47
2022/01/06 00:11:31;;;;;;;32.00;5.40;;;2.50;99.90;;;;;;4945399;29;20577;-47
2022/01/06 00:14:08;;;;;;;27.17;6.35;;;2.50;99.90;;;;;;4944610;29;20585;-46
2022/01/06 00:24:22;;;;;;;27.08;5.15;;;2.50;99.90;;;;;;4944125;29;20464;-47
2022/01/06 00:26:48;;;;;;;36.67;5.80;;;2.60;99.90;;;;;;4925369;29;20055;-47
2022/01/06 00:29:15;;;;;;;25.23;4.97;;;2.60;99.90;;;;;;4939513;29;20121;-49
2022/01/06 00:31:41;;;;;;;31.77;4.75;;;2.70;99.90;;;;;;4944765;29;20059;-50
2022/01/06 00:34:10;;;;;;;33.50;5.78;;;2.60;99.90;;;;;;4947395;28;20057;-47
2022/01/06 00:36:37;;;;;;;30.73;4.63;;;2.60;99.90;;;;;;4924907;28;20051;-46
2022/01/06 00:39:04;;;;;;;35.88;4.90;;;2.60;99.90;;;;;;4944291;29;20122;-47
2022/01/06 00:41:33;;;;;;;31.55;5.93;;;2.60;99.90;;;;;;4943907;29;20478;-47
2022/01/06 00:43:58;;;;;;;34.10;4.85;;;2.60;99.90;;;;;;4926933;29;20051;-48
2022/01/06 00:46:24;;;;;;;27.73;4.75;;;2.50;99.90;;;;;;4946963;28;20062;-47
2022/01/06 00:48:50;;;;;;;31.38;4.78;;;2.50;99.90;;;;;;4945387;29;20098;-48
2022/01/06 00:51:16;;;;;;;28.17;4.65;;;2.50;99.90;;;;;;4925744;29;20960;-49
2022/01/06 00:53:42;;;;;;;27.13;4.03;;;2.40;99.90;;;;;;4944633;28;20130;-48
2022/01/06 00:56:07;;;;;;;26.73;4.13;;;2.40;99.90;;;;;;4944409;28;20094;-46
2022/01/06 00:58:33;;;;;;;32.20;5.38;;;2.40;99.90;;;;;;4943505;28;20356;-47
2022/01/06 01:00:59;;;;;;;33.80;3.92;;;2.40;99.90;;;;;;4924051;29;20054;-47
2022/01/06 01:03:27;;;;;;;28.17;4.95;;;2.30;99.90;;;;;;4939900;28;20746;-47
2022/01/06 01:05:55;;;;;;;27.52;3.80;;;2.30;99.90;;;;;;4943195;28;20118;-47
2022/01/06 01:08:22;;;;;;;25.08;4.20;;;2.30;99.90;;;;;;4937600;28;20075;-47
2022/01/06 01:10:49;;;;;;;21.20;3.83;;;2.30;99.90;;;;;;4941800;29;20089;-47
2022/01/06 01:13:16;;;;;;;25.75;4.57;;;2.20;99.90;;;;;;4944115;28;20047;-47
2022/01/06 01:15:55;;;;;;;26.08;4.47;;;2.20;99.90;;;;;;4943893;29;20062;-50
2022/01/06 01:18:22;;;;;;;20.00;3.80;;;2.20;99.90;;;;;;4943783;29;20050;-48
2022/01/06 01:20:49;;;;;;;19.52;3.50;;;2.10;99.90;;;;;;4924796;29;20059;-47
2022/01/06 01:23:16;;;;;;;20.23;3.38;;;2.10;99.90;;;;;;4943645;29;20046;-46
2022/01/06 01:25:42;;;;;;;23.98;3.40;;;2.00;99.90;;;;;;4943391;28;20058;-46
2022/01/06 01:28:10;;;;;;;23.50;3.70;;;2.00;99.90;;;;;;4943342;29;20043;-46
2022/01/06 01:30:52;;;;;;;22.92;4.05;;;2.00;99.90;;;;;;4920250;29;20055;-48
2022/01/06 01:33:18;;;;;;;22.08;3.65;;;2.00;99.90;;;;;;4939413;29;20086;-47
2022/01/06 01:35:43;;;;;;;22.88;4.20;;;2.00;99.90;;;;;;4946810;28;20589;-47
2022/01/06 01:38:10;;;;;;;23.92;3.92;;;2.00;99.90;;;;;;4910113;29;20066;-47
2022/01/06 01:40:36;;;;;;;22.58;3.95;;;1.90;99.90;;;;;;4944886;28;20102;-47
2022/01/06 01:43:02;;;;;;;24.33;3.00;;;1.90;99.90;;;;;;4943781;28;20066;-47
2022/01/06 01:45:30;;;;;;;19.88;3.75;;;1.90;99.90;;;;;;4943734;28;20446;-47
2022/01/06 01:47:59;;;;;;;18.17;3.50;;;1.80;99.90;;;;;;4943836;28;20043;-48
2022/01/06 01:50:25;;;;;;;15.38;2.78;;;1.80;99.90;;;;;;4945126;28;20063;-46
2022/01/06 01:52:56;;;;;;;14.10;3.00;;;1.80;99.90;;;;;;4944634;28;20061;-48
2022/01/06 01:55:32;;;;;;;22.10;3.13;;;1.80;99.90;;;;;;4947504;28;20094;-47
2022/01/06 01:58:00;;;;;;;18.50;4.45;;;1.80;99.90;;;;;;4944181;28;20055;-50
2022/01/06 02:00:28;;;;;;;19.17;4.40;;;1.70;99.90;;;;;;4942470;28;20097;-51
2022/01/06 02:02:54;;;;;;;14.55;3.17;;;1.70;99.90;;;;;;4936110;28;20166;-47
2022/01/06 02:05:28;;;;;;;16.63;3.10;;;1.70;99.90;;;;;;4942944;28;20086;-47
2022/01/06 02:08:00;;;;;;;18.38;4.13;;;1.70;99.90;;;;;;4931298;28;20111;-47
2022/01/06 02:10:27;;;;;;;17.70;3.42;;;1.60;99.90;;;;;;4940731;29;20421;-48
2022/01/06 02:12:56;;;;;;;16.98;2.80;;;1.70;99.90;;;;;;4921930;29;20554;-48
2022/01/06 02:15:22;;;;;;;21.27;2.95;;;1.70;99.90;;;;;;4937526;29;20083;-47
2022/01/06 02:17:49;;;;;;;20.08;3.28;;;1.80;99.90;;;;;;4943274;29;20633;-47
2022/01/06 02:20:17;;;;;;;18.23;2.72;;;1.70;99.90;;;;;;4936929;29;20510;-48
2022/01/06 02:22:43;;;;;;;19.73;3.03;;;1.70;99.90;;;;;;4925414;29;20514;-49
2022/01/06 02:25:15;;;;;;;16.83;3.30;;;1.70;99.90;;;;;;4927659;29;20055;-46
2022/01/06 02:27:48;;;;;;;17.25;2.85;;;1.80;99.90;;;;;;4929323;29;20107;-47
2022/01/06 02:30:14;;;;;;;17.13;3.03;;;1.80;99.90;;;;;;4946669;29;20171;-49
2022/01/06 02:32:41;;;;;;;12.98;2.90;;;1.80;99.90;;;;;;4947431;29;20113;-46
2022/01/06 02:35:12;;;;;;;18.65;3.42;;;1.80;99.90;;;;;;4946430;28;20475;-47
2022/01/06 02:37:38;;;;;;;21.58;2.80;;;1.80;99.90;;;;;;4947154;28;20059;-47
2022/01/06 02:40:16;;;;;;;18.13;3.55;;;1.80;99.90;;;;;;4943442;28;20131;-47
2022/01/06 02:42:44;;;;;;;20.55;4.35;;;1.80;99.90;;;;;;4938403;28;20566;-46
2022/01/06 02:45:11;;;;;;;18.58;3.28;;;1.70;99.90;;;;;;4942050;28;20043;-47
2022/01/06 02:47:37;;;;;;;19.83;2.80;;;1.60;99.90;;;;;;4945810;28;20049;-47
2022/01/06 02:50:04;;;;;;;20.02;3.35;;;1.60;99.90;;;;;;4947644;28;20186;-47
2022/01/06 02:52:30;;;;;;;19.63;3.33;;;1.60;99.90;;;;;;4947510;28;20043;-48
2022/01/06 02:54:56;;;;;;;17.58;3.65;;;1.50;99.90;;;;;;4946315;28;20059;-47
2022/01/06 02:57:22;;;;;;;19.73;3.92;;;1.50;99.90;;;;;;4914968;29;20066;-48
2022/01/06 02:59:48;;;;;;;18.73;3.22;;;1.50;99.90;;;;;;4947599;28;20054;-48
2022/01/06 03:02:13;;;;;;;16.52;3.10;;;1.50;99.90;;;;;;4949413;28;20495;-47
2022/01/06 03:04:39;;;;;;;18.27;3.25;;;1.40;99.90;;;;;;4947259;28;20109;-54
2022/01/06 03:07:07;;;;;;;19.30;3.38;;;1.40;99.90;;;;;;4941043;28;20087;-49
2022/01/06 03:09:41;;;;;;;17.80;4.05;;;1.40;99.90;;;;;;4905423;29;20099;-46
2022/01/06 03:12:18;;;;;;;16.67;2.95;;;1.30;99.90;;;;;;4940346;29;20048;-47
2022/01/06 03:14:44;;;;;;;21.63;3.38;;;1.30;99.90;;;;;;4945549;29;20379;-47
2022/01/06 03:17:10;;;;;;;15.68;3.10;;;1.30;99.90;;;;;;4946365;29;20054;-47
2022/01/06 03:19:35;;;;;;;15.93;3.17;;;1.20;99.90;;;;;;4945821;29;20039;-47
2022/01/06 03:22:02;;;;;;;20.23;2.75;;;1.20;99.90;;;;;;4945998;29;20524;-48
2022/01/06 03:24:27;;;;;;;17.58;4.40;;;1.20;99.90;;;;;;4946020;28;20510;-47
2022/01/06 03:26:53;;;;;;;15.95;3.30;;;1.10;99.90;;;;;;4945740;29;20132;-50
2022/01/06 03:29:22;;;;;;;11.77;2.72;;;1.10;99.90;;;;;;4927992;29;20470;-47
2022/01/06 03:31:58;;;;;;;15.90;3.28;;;1.10;99.90;;;;;;4945640;29;20113;-49
2022/01/06 03:34:31;;;;;;;14.23;2.83;;;1.00;99.90;;;;;;4945669;29;20554;-48
2022/01/06 03:37:02;;;;;;;22.17;2.53;;;1.00;99.90;;;;;;4925730;29;20050;-46
2022/01/06 03:39:28;;;;;;;15.40;2.60;;;0.90;99.90;;;;;;4927432;29;20094;-47
2022/01/06 03:41:54;;;;;;;16.02;3.22;;;0.90;99.90;;;;;;4944700;29;20050;-48
2022/01/06 03:44:19;;;;;;;18.90;2.92;;;0.90;99.90;;;;;;4944677;28;20486;-48
2022/01/06 03:46:45;;;;;;;23.55;3.92;;;0.80;99.90;;;;;;4938378;29;20051;-46
2022/01/06 03:49:11;;;;;;;19.23;3.63;;;0.80;99.90;;;;;;4927375;29;20081;-47
2022/01/06 03:51:37;;;;;;;19.77;4.00;;;0.80;99.90;;;;;;4927803;29;20054;-46
2022/01/06 03:54:03;;;;;;;16.35;2.92;;;0.80;99.90;;;;;;4934920;28;20043;-46
2022/01/06 03:56:28;;;;;;;21.23;2.92;;;0.80;99.90;;;;;;4945816;29;20495;-47
2022/01/06 03:58:58;;;;;;;15.10;2.85;;;0.80;99.90;;;;;;4945199;29;20047;-50
2022/01/06 04:01:24;;;;;;;14.75;3.10;;;0.70;99.90;;;;;;4927989;29;20055;-48
2022/01/06 04:03:50;;;;;;;16.90;2.78;;;0.70;99.90;;;;;;4946275;28;20058;-46
2022/01/06 04:06:16;;;;;;;19.00;3.88;;;0.70;99.90;;;;;;4928686;29;20051;-47
2022/01/06 04:08:42;;;;;;;23.30;4.53;;;0.70;99.90;;;;;;4947649;29;20114;-47
2022/01/06 04:11:08;;;;;;;16.35;2.60;;;0.60;99.90;;;;;;4930087;29;20514;-49
2022/01/06 04:13:34;;;;;;;17.83;2.55;;;0.60;99.90;;;;;;4946125;29;20055;-51
2022/01/06 04:16:02;;;;;;;19.33;3.53;;;0.70;99.90;;;;;;4937785;29;20421;-48
2022/01/06 04:18:28;;;;;;;16.58;2.65;;;0.60;99.90;;;;;;4944327;29;20424;-47
2022/01/06 04:20:54;;;;;;;13.77;2.67;;;0.60;99.90;;;;;;4944250;28;20435;-49
2022/01/06 04:23:20;;;;;;;26.70;4.45;;;0.60;99.90;;;;;;4943974;28;20510;-46
2022/01/06 04:25:46;;;;;;;17.08;2.95;;;0.60;99.90;;;;;;4926331;29;20061;-48
2022/01/06 04:28:11;;;;;;;16.95;3.17;;;0.60;99.90;;;;;;4926420;29;20055;-47
2022/01/06 04:30:37;;;;;;;19.23;2.53;;;0.60;99.90;;;;;;4944707;28;20047;-46
2022/01/06 04:33:03;;;;;;;14.98;2.58;;;0.60;99.90;;;;;;4943769;28;20062;-47
2022/01/06 04:35:29;;;;;;;18.67;2.80;;;0.50;99.90;;;;;;4938674;28;20047;-48
2022/01/06 04:37:54;;;;;;;22.65;3.10;;;0.50;99.90;;;;;;4939950;28;20363;-47
2022/01/06 04:40:20;;;;;;;16.77;2.22;;;0.40;99.90;;;;;;4926083;29;20298;-47
2022/01/06 04:42:46;;;;;;;15.27;2.55;;;0.40;99.90;;;;;;4943758;28;20055;-48
2022/01/06 04:45:12;;;;;;;19.33;2.40;;;0.40;99.90;;;;;;4943658;28;20039;-47
2022/01/06 04:47:38;;;;;;;16.30;2.63;;;0.40;99.90;;;;;;4942689;28;20047;-49
2022/01/06 04:50:04;;;;;;;17.95;3.50;;;0.30;99.90;;;;;;4944224;28;20106;-49
2022/01/06 04:52:30;;;;;;;25.00;3.47;;;0.30;99.90;;;;;;4944514;28;20616;-46
2022/01/06 04:54:56;;;;;;;13.00;2.80;;;0.30;99.90;;;;;;4943782;28;20051;-46
2022/01/06 04:57:22;;;;;;;22.17;4.18;;;0.30;99.90;;;;;;4943912;28;20646;-47
2022/01/06 04:59:48;;;;;;;19.17;3.22;;;0.20;99.90;;;;;;4925521;29;20058;-48
2022/01/06 05:02:14;;;;;;;21.50;3.55;;;0.20;99.90;;;;;;4943637;28;20050;-47
2022/01/06 05:04:39;;;;;;;17.38;2.00;;;0.20;99.90;;;;;;4944086;28;20047;-49
2022/01/06 05:07:05;;;;;;;12.65;2.30;;;0.20;99.90;;;;;;4921456;29;20055;-48
2022/01/06 05:09:31;;;;;;;14.25;2.40;;;0.20;99.90;;;;;;4918962;29;20130;-50
2022/01/06 05:11:57;;;;;;;17.85;2.60;;;0.10;99.90;;;;;;4944881;29;20051;-48
2022/01/06 05:14:22;;;;;;;14.15;1.80;;;0.10;99.90;;;;;;4940469;29;20722;-49
2022/01/06 05:16:48;;;;;;;16.58;2.78;;;0.10;99.90;;;;;;4926431;29;20908;-51
2022/01/06 05:19:14;;;;;;;15.15;2.53;;;0.00;99.90;;;;;;4929394;29;20364;-48
2022/01/06 05:21:40;;;;;;;16.17;2.80;;;-0.10;99.90;;;;;;4942687;29;20044;-46
2022/01/06 05:24:13;;;;;;;17.48;2.80;;;-0.10;99.90;;;;;;4941336;28;20051;-47
2022/01/06 05:26:40;;;;;;;18.52;3.22;;;-0.10;99.90;;;;;;4942494;28;20047;-48
2022/01/06 05:29:11;;;;;;;17.83;4.25;;;-0.10;99.90;;;;;;4941949;28;20086;-46
2022/01/06 05:31:37;;;;;;;15.50;2.65;;;-0.20;99.90;;;;;;4936451;29;20387;-46
2022/01/06 05:34:03;;;;;;;17.60;3.00;;;-0.20;99.90;;;;;;4947753;28;20047;-46
2022/01/06 05:36:29;;;;;;;18.95;3.92;;;-0.20;99.90;;;;;;4943224;29;20051;-47
2022/01/06 05:38:55;;;;;;;13.00;2.90;;;-0.10;99.90;;;;;;4942402;28;20059;-47
2022/01/06 05:41:21;;;;;;;20.17;3.05;;;-0.10;99.90;;;;;;4924790;29;20059;-47
2022/01/06 05:43:48;;;;;;;21.98;3.58;;;-0.10;99.90;;;;;;4943668;28;20122;-48
2022/01/06 05:46:15;;;;;;;21.95;4.85;;;-0.10;99.90;;;;;;4943414;29;20039;-46
2022/01/06 05:48:41;;;;;;;15.18;3.00;;;-0.10;99.90;;;;;;4943024;29;20062;-46
2022/01/06 05:51:06;;;;;;;17.83;3.50;;;-0.10;99.90;;;;;;4943367;29;20051;-46
2022/01/06 05:53:41;;;;;;;23.73;3.25;;;-0.10;99.90;;;;;;4943751;29;20554;-48
2022/01/06 05:56:07;;;;;;;18.25;2.92;;;-0.20;99.90;;;;;;4925908;29;20534;-46
2022/01/06 05:58:33;;;;;;;12.23;2.65;;;-0.20;99.90;;;;;;4943120;28;20047;-47
2022/01/06 06:00:59;;;;;;;14.32;3.05;;;-0.20;99.90;;;;;;4943413;29;20093;-47
2022/01/06 06:03:28;;;;;;;12.15;2.70;;;-0.30;99.90;;;;;;4929017;29;20166;-46
2022/01/06 06:05:56;;;;;;;15.32;2.40;;;-0.30;99.90;;;;;;4947252;28;20549;-49
2022/01/06 06:08:22;;;;;;;15.00;3.17;;;-0.40;99.90;;;;;;4944552;29;20160;-48
2022/01/06 06:10:48;;;;;;;20.05;2.97;;;-0.40;99.90;;;;;;4946958;28;20406;-47
2022/01/06 06:13:14;;;;;;;20.75;3.45;;;-0.40;99.90;;;;;;4947254;29;20391;-47
2022/01/06 06:15:40;;;;;;;25.60;3.90;;;-0.40;99.90;;;;;;4947469;29;20395;-49
2022/01/06 06:18:09;;;;;;;18.25;2.90;;;-0.50;99.90;;;;;;4942722;29;20051;-47
2022/01/06 06:20:35;;;;;;;20.85;2.95;;;-0.50;99.90;;;;;;4948110;29;20134;-47
2022/01/06 06:23:02;;;;;;;27.05;3.45;;;-0.50;99.90;;;;;;4950625;29;20173;-48
2022/01/06 06:25:28;;;;;;;25.35;3.45;;;-0.50;99.90;;;;;;4943099;28;20055;-53
2022/01/06 06:27:53;;;;;;;16.33;3.42;;;-0.60;99.90;;;;;;4942720;29;20162;-47
2022/01/06 06:30:19;;;;;;;18.23;5.10;;;-0.60;99.90;;;;;;4927078;29;20070;-49
2022/01/06 06:32:45;;;;;;;23.13;3.85;;;-0.60;99.90;;;;;;4946241;29;20150;-47
2022/01/06 06:35:16;;;;;;;16.48;3.85;;;-0.60;99.90;;;;;;4949914;28;20142;-48
2022/01/06 06:37:42;;;;;;;20.98;4.22;;;-0.50;99.90;;;;;;4944645;29;20142;-49
2022/01/06 06:40:08;;;;;;;21.80;3.70;;;-0.50;99.90;;;;;;4927233;29;20113;-47
2022/01/06 06:42:34;;;;;;;20.95;4.25;;;-0.60;99.90;;;;;;4927966;29;20066;-47
2022/01/06 06:45:00;;;;;;;20.65;3.60;;;-0.60;99.90;;;;;;4945962;29;20055;-47
2022/01/06 06:47:25;;;;;;;20.90;3.75;;;-0.60;99.90;;;;;;4924275;29;20109;-47
2022/01/06 06:49:51;;;;;;;24.42;3.85;;;-0.60;99.90;;;;;;4946553;28;20055;-49
2022/01/06 06:52:17;;;;;;;15.82;4.03;;;-0.60;99.90;;;;;;4945979;28;20469;-48
2022/01/06 06:54:43;;;;;;;20.30;3.33;;;-0.60;99.90;;;;;;4945043;28;20051;-46
2022/01/06 06:57:09;;;;;;;23.45;3.97;;;-0.60;99.90;;;;;;4946907;28;20048;-48
2022/01/06 06:59:35;;;;;;;30.67;3.90;;;-0.60;99.90;;;;;;4945252;28;20130;-49
2022/01/06 07:02:02;;;;;;;17.70;4.32;;;-0.60;99.90;;;;;;4927573;29;20059;-49
2022/01/06 07:04:27;;;;;;;19.27;3.42;;;-0.50;99.90;;;;;;4943263;28;20051;-47
2022/01/06 07:06:56;;;;;;;20.13;3.95;;;-0.50;99.90;;;;;;4953797;28;20051;-47
2022/01/06 07:09:22;;;;;;;16.52;3.47;;;-0.60;99.90;;;;;;4945437;28;20055;-51
2022/01/06 07:11:48;;;;;;;13.50;4.00;;;-0.60;99.90;;;;;;4945054;29;20473;-48
2022/01/06 07:14:13;;;;;;;19.70;4.43;;;-0.70;99.90;;;;;;4945771;29;20047;-47
2022/01/06 07:16:39;;;;;;;15.85;3.55;;;-0.60;99.90;;;;;;4945368;29;20126;-47
2022/01/06 07:19:05;;;;;;;25.02;4.97;;;-0.70;99.90;;;;;;4927248;29;20066;-48
2022/01/06 07:21:30;;;;;;;28.38;6.63;;;-0.60;99.90;;;;;;4945630;29;20471;-47
2022/01/06 07:23:56;;;;;;;20.13;4.03;;;-0.60;99.90;;;;;;4929677;29;20383;-47
2022/01/06 07:26:22;;;;;;;22.02;4.28;;;-0.60;99.90;;;;;;4947420;29;20070;-48
2022/01/06 07:28:48;;;;;;;22.92;6.18;;;-0.60;99.90;;;;;;4949551;29;20950;-49
2022/01/06 07:31:16;;;;;;;25.30;6.80;;;-0.70;99.90;;;;;;4947437;29;20589;-47
2022/01/06 07:33:42;;;;;;;19.90;6.20;;;-0.70;99.90;;;;;;4946552;29;20157;-48
2022/01/06 07:36:08;;;;;;;16.85;4.22;;;-0.70;99.90;;;;;;4947448;29;20051;-49
2022/01/06 07:38:34;;;;;;;21.85;4.45;;;-0.80;99.90;;;;;;4928632;29;20174;-48
2022/01/06 07:41:00;;;;;;;25.55;6.80;;;-0.70;99.90;;;;;;4949886;28;20051;-48
2022/01/06 07:43:26;;;;;;;23.55;5.78;;;-0.80;99.90;;;;;;4926496;29;20052;-48
2022/01/06 07:45:51;;;;;;;28.85;6.70;;;-0.70;99.90;;;;;;4944615;29;20451;-49
2022/01/06 07:48:25;;;;;;;24.33;7.13;;;-0.80;99.90;;;;;;4945657;29;20054;-50
2022/01/06 07:50:51;;;;;;;;;;;-0.70;99.90;;;;;;4928574;29;20513;-48
2022/01/06 07:53:17;;;;;;;20.77;7.32;;;-0.70;99.90;;;;;;4944999;29;19926;-47
2022/01/06 07:55:42;;;;;;;33.03;10.88;;;-0.70;99.90;;;;;;4921925;29;20071;-47
2022/01/06 07:58:08;;;;;;;28.55;9.30;;;-0.70;99.90;;;;;;4942986;29;20134;-48
2022/01/06 08:00:34;;;;;;;31.65;10.32;;;-0.60;99.90;;;;;;4924734;29;20094;-47
2022/01/06 08:03:01;;;;;;;27.90;8.20;;;-0.60;99.90;;;;;;4944766;29;20090;-49
2022/01/06 08:05:27;;;;;;;32.85;9.35;;;-0.60;99.90;;;;;;4941992;29;20051;-48
2022/01/06 08:07:54;;;;;;;29.75;7.35;;;-0.60;99.90;;;;;;4941579;28;20105;-47
2022/01/06 08:10:21;;;;;;;24.88;7.43;;;-0.60;99.90;;;;;;4926797;29;20063;-48
2022/01/06 08:12:47;;;;;;;30.45;7.20;;;-0.50;99.90;;;;;;4944070;29;20039;-47
2022/01/06 08:15:14;;;;;;;27.55;6.22;;;-0.40;99.90;;;;;;4930941;28;20490;-50
2022/01/06 08:17:40;;;;;;;20.10;5.43;;;-0.40;99.90;;;;;;4930520;29;20047;-47
2022/01/06 08:20:07;;;;;;;25.67;6.72;;;-0.40;99.90;;;;;;4934671;28;20050;-50
2022/01/06 08:22:35;;;;;;;30.95;5.60;;;-0.30;99.90;;;;;;4931216;28;20487;-48
2022/01/06 08:25:02;;;;;;;29.73;6.68;;;-0.30;99.90;;;;;;4938009;28;20047;-47
2022/01/06 08:27:28;;;;;;;22.20;4.93;;;-0.20;99.90;;;;;;4926649;29;20059;-47
2022/01/06 08:29:54;;;;;;;22.67;4.35;;;-0.20;99.90;;;;;;4939888;28;20047;-48
2022/01/06 08:32:20;;;;;;;28.35;4.63;;;-0.10;99.90;;;;;;4944650;29;20510;-46
2022/01/06 08:34:46;;;;;;;26.08;5.40;;;-0.10;99.90;;;;;;4945330;29;20043;-48
2022/01/06 08:37:12;;;;;;;30.25;7.10;;;-0.10;99.90;;;;;;4945035;29;20051;-50
2022/01/06 08:39:38;;;;;;;18.83;5.35;;;0.00;99.90;;;;;;4943926;29;20082;-49
2022/01/06 08:42:05;;;;;;;15.93;4.72;;;0.00;99.90;;;;;;4944017;29;20126;-47
2022/01/06 08:44:31;;;;;;;23.45;5.53;;;0.00;99.90;;;;;;4943912;29;20051;-46
2022/01/06 08:46:58;;;;;;;33.05;6.80;;;0.10;99.90;;;;;;4941945;29;20521;-47
2022/01/06 08:49:24;;;;;;;20.83;5.40;;;0.10;99.90;;;;;;4943824;29;20054;-48
2022/01/06 08:51:50;;;;;;;23.10;4.82;;;0.10;99.90;;;;;;4943716;29;20050;-47
2022/01/06 08:54:15;;;;;;;19.67;5.55;;;0.10;99.90;;;;;;4943182;29;20051;-49
2022/01/06 08:56:41;;;;;;;23.95;4.88;;;0.20;99.90;;;;;;4926123;29;20059;-47
2022/01/06 08:59:07;;;;;;;30.25;7.07;;;0.20;99.90;;;;;;4942823;29;20047;-48
2022/01/06 09:01:33;;;;;;;26.55;5.80;;;0.30;99.90;;;;;;4927095;29;20091;-47
2022/01/06 09:03:59;;;;;;;23.73;5.95;;;0.30;99.90;;;;;;4923144;29;20051;-48
2022/01/06 09:06:25;;;;;;;22.65;6.45;;;0.40;99.90;;;;;;4942818;28;20051;-47
2022/01/06 09:08:52;;;;;;;20.00;6.25;;;0.40;99.90;;;;;;4937840;29;20047;-47
2022/01/06 09:11:18;;;;;;;33.33;9.05;;;0.40;99.90;;;;;;4943801;29;20146;-47
2022/01/06 09:13:44;;;;;;;32.05;8.27;;;0.40;99.90;;;;;;4944917;29;20280;-46
2022/01/06 09:16:10;;;;;;;23.95;7.32;;;0.60;99.90;;;;;;4943016;29;20043;-47
2022/01/06 09:18:37;;;;;;;23.98;6.80;;;0.60;99.90;;;;;;4925163;29;20529;-48
2022/01/06 09:21:07;;;;;;;30.88;7.93;;;0.60;99.90;;;;;;4941135;29;20142;-48
2022/01/06 09:23:33;;;;;;;33.65;7.68;;;0.70;99.90;;;;;;4936694;28;20566;-48
2022/01/06 09:25:59;;;;;;;21.08;7.78;;;0.80;99.90;;;;;;4943229;28;20419;-49
2022/01/06 09:28:25;;;;;;;41.17;24.98;;;0.90;99.90;;;;;;4932197;29;20379;-48
2022/01/06 09:30:51;;;;;;;32.63;9.85;;;0.90;99.90;;;;;;4942934;29;20174;-47
2022/01/06 09:33:20;;;;;;;24.70;8.25;;;1.00;99.90;;;;;;4944961;28;20646;-51
2022/01/06 09:35:47;;;;;;;27.90;6.70;;;1.10;99.90;;;;;;4952428;28;20110;-47
2022/01/06 09:38:13;;;;;;;25.67;6.00;;;1.10;99.90;;;;;;4944790;29;20054;-48
2022/01/06 09:40:41;;;;;;;27.02;5.88;;;1.20;99.90;;;;;;4950164;28;20057;-48
2022/01/06 09:43:08;;;;;;;32.03;5.88;;;1.30;99.90;;;;;;4953959;28;20055;-48
2022/01/06 09:45:35;;;;;;;26.27;6.88;;;1.30;99.90;;;;;;4950194;28;20055;-55
2022/01/06 09:48:01;;;;;;;28.05;4.97;;;1.40;99.90;;;;;;4949964;29;20090;-47
2022/01/06 09:50:27;;;;;;;38.17;6.97;;;1.50;99.90;;;;;;4949473;29;20086;-47
2022/01/06 09:52:53;;;;;;;17.95;5.30;;;1.50;99.90;;;;;;4950007;28;20465;-48
2022/01/06 09:55:21;;;;;;;21.40;6.18;;;1.60;99.90;;;;;;4937873;29;20668;-48
2022/01/06 09:57:57;;;;;;;29.42;8.88;;;1.60;99.90;;;;;;4948552;28;20494;-47
2022/01/06 10:00:24;;;;;;;26.80;7.40;;;1.80;99.90;;;;;;4947231;28;20452;-49
2022/01/06 10:02:55;;;;;;;25.45;6.57;;;1.80;99.90;;;;;;4949028;28;20047;-49
2022/01/06 10:05:22;;;;;;;26.08;6.30;;;1.80;99.90;;;;;;4931918;28;20063;-49
2022/01/06 10:07:48;;;;;;;26.85;5.68;;;1.90;99.90;;;;;;4943550;28;20106;-48
2022/01/06 10:10:27;;;;;;;33.22;6.15;;;2.00;99.90;;;;;;4949026;28;20078;-47
2022/01/06 10:12:57;;;;;;;17.58;5.35;;;2.10;99.90;;;;;;4931727;29;20106;-47
2022/01/06 10:15:26;;;;;;;22.17;6.05;;;2.10;99.90;;;;;;4948544;29;20059;-47
2022/01/06 10:17:52;;;;;;;19.77;5.50;;;2.20;99.90;;;;;;4948345;28;20070;-46
2022/01/06 10:20:21;;;;;;;23.42;6.10;;;2.30;99.90;;;;;;4949398;28;20043;-47
2022/01/06 10:22:49;;;;;;;16.42;4.72;;;2.30;99.90;;;;;;4948726;29;20406;-47
2022/01/06 10:25:16;;;;;;;22.15;5.03;;;2.50;99.90;;;;;;4949380;29;20058;-48
2022/01/06 10:27:44;;;;;;;25.02;7.38;;;2.50;99.90;;;;;;4949290;28;20130;-47
2022/01/06 10:30:10;;;;;;;24.70;4.50;;;2.60;99.90;;;;;;4949795;29;20082;-47
2022/01/06 10:32:38;;;;;;;19.60;5.38;;;2.70;99.90;;;;;;4932054;29;20055;-47
2022/01/06 10:35:05;;;;;;;21.52;5.32;;;2.70;99.90;;;;;;4953025;28;20083;-48
2022/01/06 10:37:38;;;;;;;23.15;6.53;;;2.80;99.90;;;;;;4948430;28;20216;-49
2022/01/06 10:40:12;;;;;;;25.23;5.38;;;2.80;99.90;;;;;;4950715;28;20059;-47
2022/01/06 10:42:41;;;;;;;25.85;4.65;;;2.90;99.90;;;;;;4929532;29;20059;-49
2022/01/06 10:45:17;;;;;;;23.70;4.07;;;2.90;99.90;;;;;;4941766;28;20072;-47
2022/01/06 10:47:48;;;;;;;26.63;4.43;;;3.00;99.90;;;;;;4929783;29;20063;-47
2022/01/06 10:50:18;;;;;;;18.25;4.38;;;3.00;99.90;;;;;;4951182;29;20145;-48
2022/01/06 10:52:57;;;;;;;18.65;4.75;;;3.10;99.90;;;;;;4948090;29;20058;-49
2022/01/06 10:55:32;;;;;;;26.80;6.85;;;3.20;99.90;;;;;;4928151;29;20055;-47
2022/01/06 10:58:09;;;;;;;22.10;4.05;;;3.30;99.90;;;;;;4946427;29;20102;-48
2022/01/06 11:00:41;;;;;;;25.05;8.30;;;3.40;99.90;;;;;;4946345;28;20138;-46
2022/01/06 11:03:22;;;;;;;21.67;5.65;;;3.40;99.90;;;;;;4946635;29;20051;-47
2022/01/06 11:05:53;;;;;;;29.73;6.80;;;3.50;99.90;;;;;;4945283;28;20047;-47
2022/01/06 11:08:25;;;;;;;14.32;4.40;;;3.50;99.90;;;;;;4942168;29;20050;-47
2022/01/06 11:13:41;;;;;;;28.70;12.68;;;3.60;99.90;;;;;;4926990;29;20055;-47
2022/01/06 11:16:12;;;;;;;34.95;13.07;;;3.60;99.90;;;;;;4907637;29;20054;-48
2022/01/06 11:18:41;;;;;;;33.65;13.88;;;3.70;99.90;;;;;;4922648;29;20126;-48
2022/01/06 11:21:15;;;;;;;26.98;10.05;;;3.70;99.90;;;;;;4923854;29;20086;-48
2022/01/06 11:23:41;;;;;;;119.20;75.25;;;3.80;99.90;;;;;;4926392;29;20515;-48
2022/01/06 11:26:25;;;;;;;21.38;7.13;;;3.80;99.90;;;;;;4926187;29;20126;-48
2022/01/06 11:28:58;;;;;;;20.17;6.60;;;3.90;99.90;;;;;;4926260;29;20052;-48
2022/01/06 11:31:34;;;;;;;28.13;20.98;;;3.90;99.90;;;;;;4928066;29;20095;-50
2022/01/06 11:34:11;;;;;;;25.25;15.70;;;4.00;99.90;;;;;;4920211;29;20055;-47
2022/01/06 11:36:37;;;;;;;21.67;10.45;;;4.00;99.90;;;;;;4922465;29;20044;-47
2022/01/06 11:39:06;;;;;;;13.73;5.65;;;4.10;99.90;;;;;;4925779;29;20570;-47
2022/01/06 11:41:40;;;;;;;16.42;4.28;;;4.10;99.90;;;;;;4910968;29;20562;-47
2022/01/06 11:44:22;;;;;;;19.95;3.30;;;4.10;99.90;;;;;;4927314;29;20510;-47
2022/01/06 11:46:55;;;;;;;17.85;6.32;;;4.20;99.90;;;;;;4911340;29;20055;-48
2022/01/06 11:49:40;;;;;;;26.83;12.02;;;4.30;99.90;;;;;;4908073;29;20052;-50
2022/01/06 11:52:11;;;;;;;17.42;7.65;;;4.30;99.90;;;;;;4916376;29;20859;-47
2022/01/06 11:54:49;;;;;;;16.63;8.52;;;4.40;99.90;;;;;;4911808;29;20079;-49
2022/01/06 11:57:26;;;;;;;15.30;4.82;;;4.50;99.90;;;;;;4891401;29;20055;-48
2022/01/06 11:59:53;;;;;;;19.55;3.90;;;4.60;99.90;;;;;;4914291;29;20217;-51
2022/01/06 12:02:22;;;;;;;18.38;5.38;;;4.60;99.90;;;;;;4914428;29;20154;-49
2022/01/06 12:04:56;;;;;;;30.83;8.10;;;4.70;99.90;;;;;;4925503;29;20040;-51
2022/01/06 12:07:22;;;;;;;18.33;9.10;;;4.80;99.90;;;;;;4920778;29;20127;-48
2022/01/06 12:09:59;;;;;;;17.35;4.60;;;4.90;99.90;;;;;;4931231;29;20113;-48
2022/01/06 12:12:36;;;;;;;10.82;3.40;;;5.00;99.90;;;;;;4911261;29;20061;-50
2022/01/06 12:15:20;;;;;;;15.85;3.80;;;5.00;99.90;;;;;;4923575;29;20377;-47
2022/01/06 12:17:51;;;;;;;16.60;3.55;;;5.10;99.90;;;;;;4925446;28;20062;-50
2022/01/06 12:20:25;;;;;;;16.83;2.50;;;5.10;99.90;;;;;;4943007;29;20482;-49
2022/01/06 12:22:52;;;;;;;15.90;3.35;;;5.10;99.90;;;;;;4944398;28;20506;-48
2022/01/06 12:25:22;;;;;;;9.18;2.13;;;5.10;99.90;;;;;;4944329;28;20058;-48
2022/01/06 12:27:52;;;;;;;9.48;2.67;;;5.10;99.90;;;;;;4944198;28;20058;-48
2022/01/06 12:30:20;;;;;;;12.88;2.25;;;5.10;99.90;;;;;;4944267;28;20051;-50
2022/01/06 12:32:57;;;;;;;15.05;2.90;;;5.10;99.90;;;;;;4925996;28;20067;-47
2022/01/06 12:35:43;;;;;;;16.17;9.40;;;5.00;99.90;;;;;;4929967;29;20075;-47
2022/01/06 12:38:10;;;;;;;51.92;35.08;;;5.00;99.90;;;;;;4939671;28;20102;-48
2022/01/06 12:40:39;;;;;;;15.40;6.25;;;5.00;99.90;;;;;;4945245;28;20043;-47
2022/01/06 12:43:22;;;;;;;13.50;2.50;;;5.00;99.90;;;;;;4926199;29;20063;-48
2022/01/06 12:46:08;;;;;;;;;;;5.00;99.90;;;;;;4944182;28;20059;-49
2022/01/06 12:48:40;;;;;;;10.20;2.60;;;5.00;99.90;;;;;;4926051;29;20217;-48
2022/01/06 12:51:11;;;;;;;12.55;2.50;;;5.00;99.90;;;;;;4926846;29;20453;-48
2022/01/06 12:53:48;;;;;;;14.73;2.13;;;5.00;99.90;;;;;;4922382;28;20483;-47
2022/01/06 12:56:26;;;;;;;16.00;2.42;;;5.00;99.90;;;;;;4943600;28;20402;-48
2022/01/06 12:58:54;;;;;;;9.45;2.63;;;5.00;99.90;;;;;;4906076;29;20059;-49
2022/01/06 13:01:20;;;;;;;11.07;2.20;;;5.00;99.90;;;;;;4935891;28;20422;-48